Time;durP1;ratioP1;P1;durP2;ratioP2;P2;SDS_P1;SDS_P2;PMS_P1;PMS_P2;Temp;Humidity;BMP_temperature;BMP_pressure;BME280_temperature;BME280_humidity;BME280_pressure;Samples;Min_cycle;Max_cycle;Signal;HPM_P1;HPM_P2
2023/09/21 00:00:17;;;;;;;5.32;3.90;;;15.40;99.90;;;;;;6018413;23;20197;-88
2023/09/21 00:02:50;;;;;;;4.05;3.40;;;15.40;99.90;;;;;;6066496;23;20236;-88
2023/09/21 00:05:19;;;;;;;4.57;3.60;;;15.30;99.90;;;;;;6040352;23;20181;-88
2023/09/21 00:07:46;;;;;;;4.63;3.63;;;15.30;99.90;;;;;;6065282;23;20252;-89
2023/09/21 00:10:13;;;;;;;5.13;3.38;;;15.30;99.90;;;;;;6065969;23;20177;-89
2023/09/21 00:12:42;;;;;;;5.00;3.60;;;15.20;99.90;;;;;;6064829;23;20182;-88
2023/09/21 00:15:12;;;;;;;4.53;3.72;;;15.30;99.90;;;;;;6042456;23;20195;-88
2023/09/21 00:17:40;;;;;;;4.13;3.50;;;15.20;99.90;;;;;;6066452;23;20663;-88
2023/09/21 00:20:12;;;;;;;5.05;3.55;;;15.20;99.90;;;;;;6014291;23;20233;-88
2023/09/21 00:22:41;;;;;;;3.60;3.30;;;15.20;99.90;;;;;;6039412;23;20166;-88
2023/09/21 00:25:09;;;;;;;4.63;3.33;;;15.30;99.90;;;;;;6038843;23;20557;-88
2023/09/21 00:27:36;;;;;;;4.63;3.17;;;15.30;99.90;;;;;;6039007;23;20208;-88
2023/09/21 00:30:04;;;;;;;4.05;3.30;;;15.30;99.90;;;;;;6039187;23;20266;-89
2023/09/21 00:32:32;;;;;;;4.18;3.35;;;15.30;99.90;;;;;;6038946;23;20178;-88
2023/09/21 00:34:59;;;;;;;5.05;3.10;;;15.40;99.90;;;;;;6038226;23;20173;-88
2023/09/21 00:37:27;;;;;;;4.25;3.38;;;15.40;99.90;;;;;;6038281;23;20188;-88
2023/09/21 00:39:54;;;;;;;3.40;3.10;;;15.40;99.90;;;;;;6036631;23;20178;-88
2023/09/21 00:42:21;;;;;;;4.13;3.08;;;15.40;99.90;;;;;;6012819;23;20513;-89
2023/09/21 00:44:52;;;;;;;4.63;3.15;;;15.40;99.90;;;;;;6038418;23;20178;-88
2023/09/21 00:47:19;;;;;;;3.40;3.10;;;15.40;99.90;;;;;;6015432;23;20180;-88
2023/09/21 00:49:47;;;;;;;4.10;3.30;;;15.50;99.90;;;;;;6038720;23;20188;-88
2023/09/21 00:52:15;;;;;;;4.45;3.22;;;15.60;99.90;;;;;;6039436;23;20194;-88
2023/09/21 00:54:44;;;;;;;3.33;2.90;;;15.60;99.90;;;;;;6038724;23;20185;-89
2023/09/21 00:57:12;;;;;;;4.45;3.05;;;15.60;99.90;;;;;;6039355;23;20178;-88
2023/09/21 00:59:41;;;;;;;3.80;2.80;;;15.60;99.90;;;;;;6038607;23;20575;-88
2023/09/21 01:02:11;;;;;;;3.55;3.00;;;15.50;99.90;;;;;;6039898;23;20217;-88
2023/09/21 01:04:39;;;;;;;3.10;2.80;;;15.40;99.90;;;;;;6037981;23;20739;-88
2023/09/21 01:07:17;;;;;;;3.58;2.80;;;15.40;99.90;;;;;;6039286;23;20205;-89
2023/09/21 01:09:45;;;;;;;3.20;2.70;;;15.50;99.90;;;;;;6037337;23;20184;-88
2023/09/21 01:12:14;;;;;;;3.42;2.97;;;15.50;99.90;;;;;;6038820;23;20202;-89
2023/09/21 01:14:43;;;;;;;3.40;2.95;;;15.40;99.90;;;;;;6037293;23;20185;-88
2023/09/21 01:17:10;;;;;;;3.72;3.00;;;15.40;99.90;;;;;;6037786;23;20181;-88
2023/09/21 01:19:37;;;;;;;3.78;2.80;;;15.30;99.90;;;;;;6036925;23;20182;-88
2023/09/21 01:22:11;;;;;;;5.43;3.15;;;15.30;99.90;;;;;;6013886;23;20202;-88
2023/09/21 01:24:40;;;;;;;3.75;2.75;;;15.20;99.90;;;;;;6038223;23;20187;-88
2023/09/21 01:27:08;;;;;;;4.00;3.03;;;15.10;99.90;;;;;;6037771;23;20178;-89
2023/09/21 01:29:35;;;;;;;6.03;2.97;;;15.00;99.90;;;;;;6038940;23;20174;-88
2023/09/21 01:32:02;;;;;;;4.55;2.80;;;14.90;99.90;;;;;;6038476;23;20185;-89
2023/09/21 01:34:30;;;;;;;3.88;2.70;;;14.80;99.90;;;;;;6037337;23;20182;-88
2023/09/21 01:36:57;;;;;;;3.88;2.80;;;14.80;99.90;;;;;;6037326;23;20185;-88
2023/09/21 01:39:24;;;;;;;7.28;2.75;;;14.80;99.90;;;;;;6039656;23;20182;-88
2023/09/21 01:41:53;;;;;;;3.45;3.15;;;15.00;99.90;;;;;;6038525;23;20204;-88
2023/09/21 01:44:21;;;;;;;4.65;2.95;;;15.00;99.90;;;;;;6037425;23;20178;-88
2023/09/21 01:46:49;;;;;;;3.83;2.67;;;14.80;99.90;;;;;;6036079;23;20181;-88
2023/09/21 01:49:17;;;;;;;3.45;2.90;;;14.80;99.90;;;;;;6038747;23;20182;-88
2023/09/21 01:51:44;;;;;;;3.90;2.75;;;14.70;99.90;;;;;;6038583;23;20205;-89
2023/09/21 01:54:11;;;;;;;3.25;2.70;;;14.70;99.90;;;;;;6035476;23;20841;-88
2023/09/21 01:56:38;;;;;;;3.55;2.75;;;14.70;99.90;;;;;;6036640;23;20182;-88
2023/09/21 01:59:08;;;;;;;4.80;2.90;;;14.70;99.90;;;;;;6037266;23;20214;-88
2023/09/21 02:01:35;;;;;;;4.72;2.70;;;14.60;99.90;;;;;;6038004;23;20205;-88
2023/09/21 02:04:02;;;;;;;3.53;2.60;;;14.50;99.90;;;;;;6038330;23;20625;-88
2023/09/21 02:06:30;;;;;;;3.05;2.85;;;14.60;99.90;;;;;;6038978;23;20226;-88
2023/09/21 02:08:59;;;;;;;3.47;2.83;;;14.60;99.90;;;;;;6038060;23;20178;-89
2023/09/21 02:11:26;;;;;;;4.13;2.97;;;14.60;99.90;;;;;;6037928;23;20178;-88
2023/09/21 02:13:53;;;;;;;3.95;3.28;;;14.50;99.90;;;;;;6036900;23;20485;-88
2023/09/21 02:16:23;;;;;;;2.92;2.72;;;14.50;99.90;;;;;;6037945;23;20184;-88
2023/09/21 02:18:49;;;;;;;4.35;2.92;;;14.40;99.90;;;;;;6050344;23;20185;-89
2023/09/21 02:21:19;;;;;;;2.90;2.60;;;14.40;99.90;;;;;;6017978;23;20261;-88
2023/09/21 02:23:46;;;;;;;2.63;2.42;;;14.50;99.90;;;;;;6064986;23;20191;-89
2023/09/21 02:26:14;;;;;;;5.63;2.60;;;14.50;99.90;;;;;;6041707;23;20175;-89
2023/09/21 02:28:41;;;;;;;4.25;2.55;;;14.60;99.90;;;;;;6041915;23;20177;-88
2023/09/21 02:31:12;;;;;;;3.38;2.38;;;14.50;99.90;;;;;;6066652;23;20185;-88
2023/09/21 02:33:42;;;;;;;3.13;2.75;;;14.50;99.90;;;;;;6066590;23;20525;-88
2023/09/21 02:36:14;;;;;;;2.88;2.58;;;14.40;99.90;;;;;;6041541;23;20213;-89
2023/09/21 02:38:41;;;;;;;3.15;2.63;;;14.50;99.90;;;;;;6067152;23;20219;-88
2023/09/21 02:41:09;;;;;;;3.05;2.75;;;14.60;99.90;;;;;;6065319;23;20201;-88
2023/09/21 02:43:36;;;;;;;2.95;2.40;;;14.60;99.90;;;;;;6016732;23;20185;-88
2023/09/21 02:46:03;;;;;;;3.35;2.63;;;14.50;99.90;;;;;;6066189;23;20177;-88
2023/09/21 02:48:30;;;;;;;3.10;2.55;;;14.40;99.90;;;;;;6040840;23;20177;-88
2023/09/21 02:50:59;;;;;;;3.58;2.50;;;14.40;99.90;;;;;;6041097;23;20197;-88
2023/09/21 02:53:27;;;;;;;3.58;2.58;;;14.40;99.90;;;;;;6017101;23;20185;-88
2023/09/21 02:55:54;;;;;;;2.80;2.15;;;14.40;99.90;;;;;;6066419;23;20181;-88
2023/09/21 02:58:20;;;;;;;3.97;2.58;;;14.60;99.90;;;;;;6063440;23;20179;-88
2023/09/21 03:00:49;;;;;;;2.65;2.45;;;14.60;99.90;;;;;;6067157;23;20550;-88
2023/09/21 03:03:17;;;;;;;3.83;2.53;;;14.50;99.90;;;;;;5995048;23;20181;-88
2023/09/21 03:05:46;;;;;;;3.33;2.50;;;14.40;99.90;;;;;;6066377;23;20173;-88
2023/09/21 03:08:15;;;;;;;2.88;2.67;;;14.40;99.90;;;;;;6041196;23;20266;-88
2023/09/21 03:10:44;;;;;;;3.95;2.63;;;14.40;99.90;;;;;;6065106;23;20192;-88
2023/09/21 03:13:17;;;;;;;3.17;2.67;;;14.40;99.90;;;;;;6066216;23;20534;-88
2023/09/21 03:15:44;;;;;;;3.15;2.67;;;14.40;99.90;;;;;;6066886;23;20558;-88
2023/09/21 03:18:12;;;;;;;4.05;2.88;;;14.40;99.90;;;;;;6066318;23;20181;-88
2023/09/21 03:20:40;;;;;;;2.53;2.33;;;14.30;99.90;;;;;;6066248;23;20647;-88
2023/09/21 03:23:09;;;;;;;5.78;2.95;;;14.40;99.90;;;;;;6066873;23;20174;-88
2023/09/21 03:25:40;;;;;;;2.90;2.70;;;14.50;99.90;;;;;;6065994;23;20209;-88
2023/09/21 03:28:10;;;;;;;3.63;2.70;;;14.50;99.90;;;;;;6066613;23;20165;-89
2023/09/21 03:30:37;;;;;;;4.90;2.70;;;14.40;99.90;;;;;;6066737;23;20205;-88
2023/09/21 03:33:05;;;;;;;2.80;2.60;;;14.40;99.90;;;;;;6066340;23;20209;-88
2023/09/21 03:35:32;;;;;;;2.88;2.67;;;14.50;99.90;;;;;;6066461;23;20238;-88
2023/09/21 03:37:59;;;;;;;3.58;2.65;;;14.50;99.90;;;;;;6066613;23;20173;-89
2023/09/21 03:40:26;;;;;;;3.33;2.75;;;14.40;99.90;;;;;;6066319;23;20184;-88
2023/09/21 03:42:55;;;;;;;3.40;2.63;;;14.30;99.90;;;;;;6040489;23;20193;-88
2023/09/21 03:45:24;;;;;;;4.25;2.67;;;14.20;99.90;;;;;;6066023;23;20180;-88
2023/09/21 03:47:51;;;;;;;5.43;2.70;;;14.20;99.90;;;;;;6066495;23;20170;-88
2023/09/21 03:50:18;;;;;;;3.13;2.67;;;14.20;99.90;;;;;;6069589;23;20181;-88
2023/09/21 03:52:47;;;;;;;3.60;2.50;;;14.10;99.90;;;;;;6044195;23;20181;-88
2023/09/21 03:55:15;;;;;;;4.72;2.95;;;14.10;99.90;;;;;;6068969;23;20767;-88
2023/09/21 03:57:41;;;;;;;5.00;2.67;;;14.00;99.90;;;;;;6069629;23;20214;-87
2023/09/21 04:00:26;;;;;;;3.28;2.72;;;13.90;99.90;;;;;;6068818;23;20183;-88
2023/09/21 04:02:54;;;;;;;3.20;2.90;;;13.90;99.90;;;;;;6046207;23;20315;-87
2023/09/21 04:05:24;;;;;;;5.32;3.20;;;13.90;99.90;;;;;;6069329;23;20181;-88
2023/09/21 04:07:51;;;;;;;3.47;2.83;;;14.00;99.90;;;;;;6069564;23;20181;-88
2023/09/21 04:10:18;;;;;;;3.20;2.78;;;14.20;99.90;;;;;;6043354;23;20184;-88
2023/09/21 04:12:45;;;;;;;4.45;2.80;;;14.20;99.90;;;;;;6043389;23;20177;-88
2023/09/21 04:15:14;;;;;;;3.85;2.72;;;14.20;99.90;;;;;;6068817;23;20177;-89
2023/09/21 04:17:41;;;;;;;5.70;2.42;;;14.10;99.90;;;;;;6069967;23;20496;-87
2023/09/21 04:20:12;;;;;;;4.63;2.95;;;14.00;99.90;;;;;;6070113;23;20187;-90
2023/09/21 04:22:40;;;;;;;3.03;2.72;;;13.90;99.90;;;;;;6069890;23;20189;-90
2023/09/21 04:25:09;;;;;;;3.78;2.70;;;13.90;99.90;;;;;;6069220;23;20184;-90
2023/09/21 04:27:38;;;;;;;3.80;3.00;;;13.90;99.90;;;;;;6044842;23;20177;-88
2023/09/21 04:30:24;;;;;;;2.92;2.60;;;13.80;99.90;;;;;;6069895;23;20217;-91
2023/09/21 04:32:53;;;;;;;3.60;2.60;;;13.80;99.90;;;;;;6067859;23;20181;-87
2023/09/21 04:35:21;;;;;;;3.05;2.75;;;13.80;99.90;;;;;;6067579;23;20521;-88
2023/09/21 04:37:50;;;;;;;2.67;2.47;;;14.00;99.90;;;;;;6068528;23;20181;-88
2023/09/21 04:40:17;;;;;;;4.78;2.80;;;13.90;99.90;;;;;;6067201;23;20181;-88
2023/09/21 04:42:46;;;;;;;6.13;3.00;;;13.90;99.90;;;;;;6069635;23;20529;-87
2023/09/21 04:45:15;;;;;;;4.32;2.90;;;13.80;99.90;;;;;;6068716;23;20625;-88
2023/09/21 04:47:44;;;;;;;3.70;2.90;;;13.70;99.90;;;;;;6044286;23;20173;-89
2023/09/21 04:50:12;;;;;;;4.20;2.90;;;13.70;99.90;;;;;;6068991;23;20177;-91
2023/09/21 04:52:39;;;;;;;6.45;3.20;;;13.70;99.90;;;;;;6043633;23;20234;-90
2023/09/21 04:55:08;;;;;;;5.63;3.10;;;13.70;99.90;;;;;;6069212;23;20181;-91
2023/09/21 04:57:36;;;;;;;4.05;3.17;;;13.70;99.90;;;;;;6068180;23;20178;-88
2023/09/21 05:00:07;;;;;;;5.50;3.20;;;13.80;99.90;;;;;;6068810;23;20196;-88
2023/09/21 05:02:34;;;;;;;4.22;3.25;;;13.80;99.90;;;;;;6066797;23;20362;-87
2023/09/21 05:05:02;;;;;;;4.05;2.95;;;13.80;99.90;;;;;;6066515;23;20184;-87
2023/09/21 05:07:29;;;;;;;8.05;3.13;;;13.80;99.90;;;;;;6066182;23;20269;-86
2023/09/21 05:09:57;;;;;;;7.57;3.00;;;13.80;99.90;;;;;;6063237;23;20177;-87
2023/09/21 05:12:27;;;;;;;6.55;3.58;;;13.90;99.90;;;;;;6065006;23;20193;-88
2023/09/21 05:14:54;;;;;;;6.40;3.38;;;13.80;99.90;;;;;;6067350;23;20574;-87
2023/09/21 05:17:21;;;;;;;5.22;3.38;;;13.90;99.90;;;;;;6066017;23;20993;-87
2023/09/21 05:19:49;;;;;;;4.20;2.80;;;14.00;99.90;;;;;;6013924;23;20221;-88
2023/09/21 05:22:17;;;;;;;3.80;3.17;;;14.10;99.90;;;;;;6036748;23;20518;-88
2023/09/21 05:24:44;;;;;;;4.65;3.05;;;14.30;99.90;;;;;;6037907;23;20185;-88
2023/09/21 05:27:11;;;;;;;3.90;3.10;;;14.20;99.90;;;;;;6038215;23;20550;-87
2023/09/21 05:29:40;;;;;;;7.00;3.60;;;14.20;99.90;;;;;;6037940;23;20268;-88
2023/09/21 05:32:07;;;;;;;5.18;3.30;;;14.30;99.90;;;;;;6037076;23;20237;-87
2023/09/21 05:34:34;;;;;;;3.33;3.03;;;14.50;99.90;;;;;;6038477;23;20203;-87
2023/09/21 05:37:00;;;;;;;3.10;2.67;;;14.50;99.90;;;;;;6038234;23;20644;-87
2023/09/21 05:39:29;;;;;;;4.60;2.47;;;14.60;99.90;;;;;;6038891;23;20640;-88
2023/09/21 05:41:57;;;;;;;5.00;2.80;;;14.60;99.90;;;;;;6038514;23;20200;-87
2023/09/21 05:44:25;;;;;;;4.93;3.15;;;14.60;99.90;;;;;;6037061;23;20502;-87
2023/09/21 05:46:52;;;;;;;3.83;2.80;;;14.60;99.90;;;;;;6037861;23;20178;-87
2023/09/21 05:49:22;;;;;;;5.72;3.10;;;14.60;99.90;;;;;;6036520;23;20178;-88
2023/09/21 05:51:52;;;;;;;4.05;2.67;;;14.60;99.90;;;;;;6037365;23;20250;-87
2023/09/21 05:54:20;;;;;;;4.82;2.90;;;14.60;99.90;;;;;;6036759;23;20210;-88
2023/09/21 05:56:50;;;;;;;5.38;3.08;;;14.70;99.90;;;;;;6038641;23;20230;-88
2023/09/21 05:59:17;;;;;;;5.05;3.28;;;14.60;99.90;;;;;;6037990;23;20178;-88
2023/09/21 06:01:44;;;;;;;3.35;2.90;;;14.60;99.90;;;;;;6037144;23;20198;-88
2023/09/21 06:04:12;;;;;;;5.03;3.08;;;14.60;99.90;;;;;;6037566;23;20188;-88
2023/09/21 06:06:39;;;;;;;7.72;3.20;;;14.50;99.90;;;;;;6038561;23;20515;-88
2023/09/21 06:09:07;;;;;;;7.47;3.05;;;14.60;99.90;;;;;;6037085;23;20201;-88
2023/09/21 06:11:35;;;;;;;3.28;2.97;;;14.50;99.90;;;;;;6013487;23;20209;-88
2023/09/21 06:14:04;;;;;;;4.25;3.10;;;14.60;99.90;;;;;;6038160;23;20178;-88
2023/09/21 06:16:32;;;;;;;4.15;2.63;;;14.60;99.90;;;;;;6039320;23;20504;-88
2023/09/21 06:19:00;;;;;;;3.70;3.10;;;14.60;99.90;;;;;;6052048;23;20185;-88
2023/09/21 06:21:28;;;;;;;5.93;3.20;;;14.60;99.90;;;;;;6066924;23;20177;-88
2023/09/21 06:23:55;;;;;;;5.30;3.05;;;14.70;99.90;;;;;;6041832;23;20181;-88
2023/09/21 06:26:23;;;;;;;3.67;3.10;;;14.80;99.90;;;;;;6066032;23;20173;-88
2023/09/21 06:28:50;;;;;;;4.47;3.33;;;14.90;99.90;;;;;;6040691;23;20500;-88
2023/09/21 06:31:20;;;;;;;6.57;3.00;;;15.00;99.90;;;;;;6065785;23;20259;-88
2023/09/21 06:33:48;;;;;;;4.68;3.03;;;15.10;99.90;;;;;;6065158;23;20186;-88
2023/09/21 06:36:18;;;;;;;6.07;3.15;;;15.30;99.90;;;;;;6065566;23;20177;-88
2023/09/21 06:38:45;;;;;;;4.80;3.03;;;15.40;99.90;;;;;;6040649;23;20248;-88
2023/09/21 06:41:12;;;;;;;3.65;3.00;;;15.40;99.90;;;;;;6040084;23;20173;-88
2023/09/21 06:43:42;;;;;;;5.70;3.20;;;15.50;99.90;;;;;;6039517;23;20201;-88
2023/09/21 06:46:09;;;;;;;4.28;3.03;;;15.60;99.90;;;;;;6066057;23;20295;-88
2023/09/21 06:48:38;;;;;;;5.10;3.05;;;15.60;99.90;;;;;;6041249;23;20629;-88
2023/09/21 06:51:07;;;;;;;9.48;2.92;;;15.70;99.90;;;;;;6066006;23;20198;-88
2023/09/21 06:53:34;;;;;;;3.45;2.90;;;15.80;99.90;;;;;;6066821;23;20179;-88
2023/09/21 06:56:01;;;;;;;3.47;2.85;;;15.80;99.90;;;;;;6066500;23;20179;-88
2023/09/21 06:58:30;;;;;;;4.95;3.03;;;15.90;99.90;;;;;;6064769;23;20180;-88
2023/09/21 07:00:57;;;;;;;3.45;3.15;;;16.10;99.90;;;;;;6065474;23;20181;-88
2023/09/21 07:03:24;;;;;;;3.45;3.00;;;16.20;99.90;;;;;;6065513;23;20481;-88
2023/09/21 07:05:52;;;;;;;3.30;2.70;;;16.20;99.90;;;;;;6065724;23;20183;-88
2023/09/21 07:08:21;;;;;;;4.80;2.88;;;16.30;99.90;;;;;;6066248;23;20173;-88
2023/09/21 07:10:49;;;;;;;3.72;3.03;;;16.30;99.90;;;;;;6065150;23;20229;-88
2023/09/21 07:13:18;;;;;;;3.00;2.70;;;16.40;99.90;;;;;;6065352;23;20236;-88
2023/09/21 07:15:46;;;;;;;5.68;2.97;;;16.50;99.90;;;;;;6064958;23;20177;-88
2023/09/21 07:18:13;;;;;;;3.95;2.67;;;16.60;99.90;;;;;;6036246;23;20653;-88
2023/09/21 07:20:40;;;;;;;4.50;2.72;;;16.70;99.90;;;;;;6037555;23;20174;-88
2023/09/21 07:23:09;;;;;;;6.78;2.88;;;16.70;99.90;;;;;;6035206;23;20202;-88
2023/09/21 07:25:36;;;;;;;6.63;2.53;;;16.90;99.90;;;;;;6036788;23;20188;-88
2023/09/21 07:28:05;;;;;;;5.85;2.95;;;17.00;99.90;;;;;;6035220;23;20181;-88
2023/09/21 07:30:32;;;;;;;2.97;2.30;;;17.10;99.90;;;;;;6035668;23;20543;-88
2023/09/21 07:33:00;;;;;;;8.10;2.75;;;17.20;99.90;;;;;;6036405;23;20181;-88
2023/09/21 07:35:27;;;;;;;2.90;2.40;;;17.30;99.90;;;;;;6035070;23;20173;-88
2023/09/21 07:37:54;;;;;;;4.30;2.53;;;17.40;99.90;;;;;;6034847;23;20186;-88
2023/09/21 07:40:23;;;;;;;5.82;2.70;;;17.50;99.50;;;;;;6035864;23;20178;-89
2023/09/21 07:42:51;;;;;;;3.65;2.40;;;17.60;99.70;;;;;;6034244;23;20194;-89
2023/09/21 07:45:19;;;;;;;3.78;2.55;;;17.70;98.50;;;;;;6036882;23;20273;-88
2023/09/21 07:47:46;;;;;;;3.60;2.58;;;17.80;98.10;;;;;;6035861;23;20256;-88
2023/09/21 07:50:13;;;;;;;3.28;2.30;;;17.90;97.60;;;;;;6037075;23;20185;-88
2023/09/21 07:52:40;;;;;;;5.65;2.67;;;18.00;97.60;;;;;;6034874;23;20178;-88
2023/09/21 07:55:09;;;;;;;4.07;2.40;;;18.20;96.40;;;;;;6034129;23;20177;-88
2023/09/21 07:57:39;;;;;;;5.22;2.22;;;18.30;95.60;;;;;;6034269;23;20178;-88
2023/09/21 08:00:09;;;;;;;2.92;2.10;;;18.40;93.40;;;;;;6034995;23;20189;-88
2023/09/21 08:02:36;;;;;;;5.25;2.15;;;18.50;92.30;;;;;;6036269;23;20228;-89
2023/09/21 08:05:04;;;;;;;7.57;2.42;;;18.60;92.30;;;;;;6036418;23;20173;-88
2023/09/21 08:07:32;;;;;;;4.07;2.58;;;18.80;93.40;;;;;;6034472;23;20233;-88
2023/09/21 08:10:10;;;;;;;5.53;2.40;;;18.90;92.40;;;;;;6036061;23;20506;-89
2023/09/21 08:12:41;;;;;;;3.65;2.63;;;19.00;89.80;;;;;;6035226;23;20184;-88
2023/09/21 08:15:17;;;;;;;4.15;2.20;;;19.20;90.50;;;;;;6035485;23;20174;-88
2023/09/21 08:17:44;;;;;;;2.58;2.38;;;19.20;88.80;;;;;;6034172;23;20768;-88
2023/09/21 08:20:13;;;;;;;2.60;2.40;;;19.40;89.10;;;;;;6065003;23;20185;-88
2023/09/21 08:22:41;;;;;;;4.15;2.45;;;19.50;84.30;;;;;;6062894;23;20208;-88
2023/09/21 08:25:08;;;;;;;2.40;2.10;;;19.70;82.50;;;;;;6065024;23;20228;-88
2023/09/21 08:27:35;;;;;;;2.67;2.15;;;19.80;80.70;;;;;;6065739;23;20185;-88
2023/09/21 08:30:06;;;;;;;3.13;2.10;;;19.80;85.00;;;;;;6063413;23;20192;-88
2023/09/21 08:32:33;;;;;;;2.53;2.15;;;20.00;80.80;;;;;;6066094;23;20173;-88
2023/09/21 08:35:00;;;;;;;2.67;2.15;;;20.00;80.90;;;;;;6064065;23;20225;-88
2023/09/21 08:37:28;;;;;;;5.70;2.58;;;20.10;80.90;;;;;;6065336;23;20180;-88
2023/09/21 08:39:55;;;;;;;3.22;2.00;;;20.20;81.00;;;;;;6065427;23;20209;-88
2023/09/21 08:42:22;;;;;;;4.53;2.05;;;20.30;76.50;;;;;;6067145;23;20497;-89
2023/09/21 08:44:50;;;;;;;3.65;2.60;;;20.60;74.30;;;;;;6065557;23;20492;-87
2023/09/21 08:47:20;;;;;;;2.38;2.10;;;20.70;72.60;;;;;;6067192;23;20201;-88
2023/09/21 08:49:47;;;;;;;4.85;2.47;;;20.90;75.20;;;;;;6066741;23;20629;-88
2023/09/21 08:52:15;;;;;;;3.25;2.10;;;21.40;61.20;;;;;;6066999;23;20197;-88
2023/09/21 08:54:42;;;;;;;5.20;2.33;;;21.70;57.50;;;;;;6066521;23;20173;-86
2023/09/21 08:57:12;;;;;;;3.53;2.10;;;23.10;42.60;;;;;;6068122;23;20181;-86
2023/09/21 08:59:42;;;;;;;4.47;2.45;;;24.70;35.00;;;;;;6066865;23;20644;-87
2023/09/21 09:02:12;;;;;;;4.95;2.30;;;25.90;27.90;;;;;;6068131;23;20181;-86
2023/09/21 09:04:41;;;;;;;4.63;2.45;;;26.60;24.50;;;;;;6041035;23;20169;-85
2023/09/21 09:07:08;;;;;;;2.53;2.15;;;26.60;20.70;;;;;;6066554;23;20177;-87
2023/09/21 09:09:38;;;;;;;4.88;2.50;;;26.90;20.60;;;;;;6041346;23;20652;-86
2023/09/21 09:12:21;;;;;;;4.15;2.30;;;27.10;20.30;;;;;;6067561;23;20247;-86
2023/09/21 09:14:48;;;;;;;4.13;2.47;;;27.10;18.60;;;;;;6067418;23;20161;-86
2023/09/21 09:17:15;;;;;;;5.03;2.33;;;27.40;19.60;;;;;;6042401;23;20173;-87
2023/09/21 09:19:44;;;;;;;5.18;2.40;;;27.30;20.00;;;;;;6036422;23;20189;-86
2023/09/21 09:22:11;;;;;;;4.30;2.45;;;27.20;20.00;;;;;;6038460;23;20181;-86
2023/09/21 09:24:38;;;;;;;3.28;2.42;;;27.80;17.90;;;;;;6036043;23;20209;-86
2023/09/21 09:27:05;;;;;;;5.35;2.50;;;28.60;15.90;;;;;;6037600;23;20177;-89
2023/09/21 09:29:33;;;;;;;3.85;2.40;;;29.70;16.50;;;;;;6038459;23;20502;-89
2023/09/21 09:32:00;;;;;;;2.95;2.50;;;30.20;14.00;;;;;;6038616;23;20206;-89
2023/09/21 09:34:29;;;;;;;3.65;2.40;;;30.50;12.60;;;;;;6037559;23;20181;-90
2023/09/21 09:36:57;;;;;;;4.93;2.42;;;30.90;12.00;;;;;;6038087;23;20274;-89
2023/09/21 09:39:24;;;;;;;12.60;9.68;;;31.00;9.50;;;;;;6038523;23;20173;-90
2023/09/21 09:41:51;;;;;;;5.35;3.28;;;31.40;9.20;;;;;;6036425;23;20177;-90
2023/09/21 09:44:22;;;;;;;2.90;2.70;;;31.50;10.30;;;;;;6035760;23;20525;-89
2023/09/21 09:46:52;;;;;;;3.28;2.50;;;31.80;8.00;;;;;;6036282;23;20178;-89
2023/09/21 09:49:20;;;;;;;2.80;2.60;;;32.10;8.00;;;;;;6036849;23;20181;-89
2023/09/21 09:51:47;;;;;;;3.30;2.90;;;31.80;9.50;;;;;;6036110;23;20205;-89
2023/09/21 09:54:18;;;;;;;4.07;2.80;;;31.80;8.70;;;;;;6036725;23;20237;-89
2023/09/21 09:56:45;;;;;;;3.08;2.78;;;33.00;8.20;;;;;;6035689;23;20229;-89
2023/09/21 09:59:13;;;;;;;3.17;2.88;;;34.10;5.50;;;;;;6038040;23;20178;-90
2023/09/21 10:01:41;;;;;;;3.63;3.30;;;33.10;6.90;;;;;;6037810;23;20173;-91
2023/09/21 10:04:08;;;;;;;3.22;2.72;;;32.60;7.10;;;;;;6037322;23;20507;-91
2023/09/21 10:06:36;;;;;;;3.20;2.90;;;32.80;7.00;;;;;;6037908;23;20237;-91
2023/09/21 10:09:10;;;;;;;3.90;2.72;;;32.90;8.30;;;;;;6037568;23;20232;-91
2023/09/21 10:11:45;;;;;;;3.08;2.75;;;32.10;7.50;;;;;;6036831;23;20563;-90
2023/09/21 10:14:14;;;;;;;3.20;3.00;;;31.60;9.20;;;;;;6031865;23;20544;-89
2023/09/21 10:16:49;;;;;;;3.08;2.80;;;31.20;10.60;;;;;;6033228;23;20241;-88
2023/09/21 10:19:24;;;;;;;4.03;2.70;;;30.60;10.90;;;;;;6054155;23;20737;-88
2023/09/21 10:21:54;;;;;;;3.58;2.60;;;30.80;11.30;;;;;;6062044;23;20169;-89
2023/09/21 10:24:24;;;;;;;3.78;2.47;;;30.40;10.90;;;;;;6064232;23;20206;-89
2023/09/21 10:26:53;;;;;;;4.15;2.63;;;30.70;10.50;;;;;;6061847;23;20181;-90
2023/09/21 10:29:21;;;;;;;2.78;2.50;;;31.30;9.20;;;;;;6064877;23;20212;-89
2023/09/21 10:31:55;;;;;;;3.03;2.65;;;31.10;9.90;;;;;;6065292;23;20177;-88
2023/09/21 10:34:24;;;;;;;3.25;2.40;;;31.50;7.80;;;;;;6064280;23;20169;-88
2023/09/21 10:36:52;;;;;;;3.55;2.20;;;31.30;10.80;;;;;;6065327;23;20658;-88
2023/09/21 10:39:28;;;;;;;3.00;2.50;;;31.00;11.80;;;;;;6064132;23;20177;-89
2023/09/21 10:42:33;;;;;;;2.67;2.38;;;30.80;10.40;;;;;;6065002;23;20249;-89
2023/09/21 10:45:03;;;;;;;2.63;2.20;;;30.30;9.80;;;;;;6064623;23;20195;-89
2023/09/21 10:47:51;;;;;;;2.63;2.42;;;30.60;9.30;;;;;;6060073;23;20161;-85
2023/09/21 10:50:24;;;;;;;2.70;2.50;;;30.40;11.80;;;;;;6064886;23;20172;-88
2023/09/21 10:52:55;;;;;;;2.38;2.17;;;30.70;9.40;;;;;;6065102;23;20172;-88
2023/09/21 10:55:22;;;;;;;2.50;2.30;;;31.00;8.10;;;;;;6064600;23;20193;-88
2023/09/21 10:57:53;;;;;;;2.42;2.20;;;30.80;10.70;;;;;;6064858;23;20176;-88
2023/09/21 11:00:20;;;;;;;2.88;2.28;;;30.70;9.00;;;;;;6038039;23;20184;-88
2023/09/21 11:02:49;;;;;;;3.03;1.98;;;30.40;9.40;;;;;;6062446;23;20244;-85
2023/09/21 11:05:17;;;;;;;2.55;1.92;;;29.40;8.50;;;;;;6062100;23;20197;-86
2023/09/21 11:07:45;;;;;;;2.13;1.77;;;28.70;13.40;;;;;;6013224;23;20183;-83
2023/09/21 11:10:14;;;;;;;3.30;2.08;;;28.20;12.10;;;;;;6064648;23;20680;-83
2023/09/21 11:12:41;;;;;;;3.92;2.05;;;28.20;11.30;;;;;;6062600;23;20176;-83
2023/09/21 11:15:13;;;;;;;2.95;2.00;;;27.90;15.60;;;;;;6066160;23;20204;-85
2023/09/21 11:17:41;;;;;;;3.63;1.90;;;27.90;12.90;;;;;;6065513;23;20169;-83
2023/09/21 11:20:12;;;;;;;2.72;1.73;;;27.80;12.50;;;;;;6066085;23;20180;-83
2023/09/21 11:22:40;;;;;;;5.78;2.00;;;27.60;11.90;;;;;;6065677;23;20165;-83
2023/09/21 11:25:09;;;;;;;2.92;1.95;;;27.70;12.90;;;;;;6064122;23;20691;-82
2023/09/21 11:27:38;;;;;;;1.88;1.63;;;27.30;11.70;;;;;;6040806;23;20181;-82
2023/09/21 11:30:07;;;;;;;2.83;1.52;;;27.40;12.80;;;;;;6065678;23;20185;-83
2023/09/21 11:32:42;;;;;;;1.98;1.77;;;27.20;14.20;;;;;;6040579;23;20260;-84
2023/09/21 11:35:09;;;;;;;6.32;1.58;;;27.20;13.10;;;;;;6039677;23;20237;-82
2023/09/21 11:37:36;;;;;;;3.25;1.83;;;27.30;13.40;;;;;;6065326;23;20707;-84
2023/09/21 11:40:10;;;;;;;2.25;2.05;;;27.40;12.80;;;;;;6063057;23;20177;-85
2023/09/21 11:42:41;;;;;;;1.70;1.60;;;27.50;12.60;;;;;;6065435;23;20211;-84
2023/09/21 11:45:14;;;;;;;3.00;1.70;;;27.50;12.40;;;;;;6064615;23;20192;-85
2023/09/21 11:47:58;;;;;;;1.95;1.70;;;27.30;12.00;;;;;;6065882;23;20161;-86
2023/09/21 11:50:27;;;;;;;3.25;1.80;;;27.10;12.50;;;;;;6060323;23;20177;-87
2023/09/21 11:52:56;;;;;;;2.70;1.90;;;27.00;13.40;;;;;;6064049;23;20177;-84
2023/09/21 11:55:24;;;;;;;1.92;1.70;;;27.10;13.10;;;;;;6065017;23;20597;-85
2023/09/21 11:57:51;;;;;;;2.55;2.05;;;27.10;12.60;;;;;;6064692;23;20188;-85
2023/09/21 12:00:27;;;;;;;3.00;1.70;;;26.90;13.90;;;;;;6063452;23;20264;-84
2023/09/21 12:02:56;;;;;;;1.67;1.58;;;26.90;12.50;;;;;;6063559;23;20188;-84
2023/09/21 12:05:26;;;;;;;3.28;1.70;;;26.80;12.80;;;;;;6063638;23;20256;-86
2023/09/21 12:07:56;;;;;;;1.60;1.50;;;26.80;12.80;;;;;;6060175;23;20208;-86
2023/09/21 12:10:23;;;;;;;2.20;1.90;;;26.90;12.60;;;;;;6043309;23;20176;-84
2023/09/21 12:12:51;;;;;;;2.47;1.70;;;26.90;13.80;;;;;;6067825;23;20200;-84
2023/09/21 12:15:18;;;;;;;3.30;2.47;;;26.90;14.10;;;;;;6064531;23;20192;-87
2023/09/21 12:17:45;;;;;;;2.08;1.80;;;26.90;15.10;;;;;;6042765;23;20276;-86
2023/09/21 12:20:17;;;;;;;2.95;1.63;;;26.90;12.70;;;;;;6065962;23;20177;-83
2023/09/21 12:22:46;;;;;;;1.88;1.50;;;27.10;15.20;;;;;;6066856;23;20523;-84
2023/09/21 12:25:14;;;;;;;2.83;1.77;;;27.00;12.50;;;;;;6067042;23;20196;-85
2023/09/21 12:27:42;;;;;;;1.92;1.77;;;27.10;12.70;;;;;;6066666;23;20636;-82
2023/09/21 12:30:12;;;;;;;1.65;1.55;;;27.20;14.00;;;;;;6063481;23;20180;-84
2023/09/21 12:32:40;;;;;;;2.67;1.83;;;27.20;11.70;;;;;;6065634;23;20165;-84
2023/09/21 12:35:08;;;;;;;2.78;2.42;;;27.10;10.50;;;;;;6063137;23;20184;-83
2023/09/21 12:37:35;;;;;;;3.78;2.35;;;27.00;12.60;;;;;;6063635;23;20177;-82
2023/09/21 12:40:11;;;;;;;1.65;1.50;;;27.00;12.40;;;;;;6065492;23;20177;-84
2023/09/21 12:42:38;;;;;;;3.13;2.72;;;27.00;12.20;;;;;;6042248;23;20903;-83
2023/09/21 12:45:07;;;;;;;2.95;1.30;;;27.10;11.60;;;;;;6066461;23;20203;-83
2023/09/21 12:47:33;;;;;;;2.22;1.70;;;27.10;11.40;;;;;;6067463;23;20173;-83
2023/09/21 12:50:03;;;;;;;2.28;1.15;;;27.00;12.30;;;;;;6066853;23;20646;-84
2023/09/21 12:52:30;;;;;;;1.88;1.75;;;26.90;10.10;;;;;;6040744;23;20197;-83
2023/09/21 12:54:58;;;;;;;2.10;1.60;;;26.80;10.60;;;;;;6066076;23;20185;-80